Time;durP1;ratioP1;P1;durP2;ratioP2;P2;SDS_P1;SDS_P2;PMS_P1;PMS_P2;Temp;Humidity;BMP_temperature;BMP_pressure;BME280_temperature;BME280_humidity;BME280_pressure;Samples;Min_cycle;Max_cycle;Signal;HPM_P1;HPM_P2
2022/04/24 00:01:40;;;;;;;8.07;5.35;;;11.20;74.60;;;;;;5009940;28;20558;-39
2022/04/24 00:04:05;;;;;;;7.90;5.38;;;11.10;75.20;;;;;;5007662;28;20084;-39
2022/04/24 00:06:32;;;;;;;7.47;4.80;;;11.00;75.90;;;;;;5009733;28;20085;-39
2022/04/24 00:08:58;;;;;;;7.10;4.85;;;11.00;76.30;;;;;;5002689;28;20076;-40
2022/04/24 00:11:24;;;;;;;6.90;5.30;;;11.00;76.10;;;;;;5003723;28;20077;-41
2022/04/24 00:13:50;;;;;;;6.97;4.70;;;10.90;76.40;;;;;;5008814;28;20201;-40
2022/04/24 00:16:15;;;;;;;8.75;4.93;;;10.90;76.50;;;;;;5007641;28;20108;-39
2022/04/24 00:18:42;;;;;;;6.07;4.55;;;10.90;76.80;;;;;;5006643;28;20510;-39
2022/04/24 00:21:08;;;;;;;8.95;5.35;;;10.90;76.10;;;;;;5001881;28;20052;-40
2022/04/24 00:23:33;;;;;;;7.85;4.82;;;10.90;77.10;;;;;;5006225;28;20463;-41
2022/04/24 00:26:00;;;;;;;6.63;4.90;;;10.80;77.30;;;;;;5004858;28;20120;-40
2022/04/24 00:28:25;;;;;;;6.57;4.97;;;10.80;77.20;;;;;;5005638;28;20042;-38
2022/04/24 00:30:51;;;;;;;7.30;4.78;;;10.70;77.30;;;;;;5007024;28;20410;-40
2022/04/24 00:33:17;;;;;;;8.05;4.90;;;10.70;77.50;;;;;;4998628;28;20108;-38
2022/04/24 00:35:42;;;;;;;7.88;4.80;;;10.70;78.20;;;;;;5004737;28;20479;-40
2022/04/24 00:38:08;;;;;;;6.55;4.53;;;10.70;77.50;;;;;;5005040;28;20044;-39
2022/04/24 00:40:34;;;;;;;6.70;4.78;;;10.70;77.20;;;;;;5002973;28;20120;-40
2022/04/24 00:43:00;;;;;;;7.60;5.00;;;10.70;78.20;;;;;;4999863;28;20100;-40
2022/04/24 00:45:25;;;;;;;6.30;4.07;;;10.60;78.20;;;;;;5002606;28;20096;-40
2022/04/24 00:47:51;;;;;;;6.30;4.88;;;10.60;77.80;;;;;;5005243;28;20129;-39
2022/04/24 00:50:18;;;;;;;7.45;4.63;;;10.60;78.00;;;;;;5004118;28;20052;-40
2022/04/24 00:52:45;;;;;;;6.15;4.32;;;10.50;78.20;;;;;;5005460;28;20548;-39
2022/04/24 00:55:10;;;;;;;6.97;4.63;;;10.50;78.80;;;;;;5006884;28;20056;-38
2022/04/24 00:57:36;;;;;;;6.32;4.35;;;10.40;79.30;;;;;;4999322;28;20034;-40
2022/04/24 01:00:04;;;;;;;9.80;4.70;;;10.40;79.00;;;;;;4997214;28;20121;-40
2022/04/24 01:02:30;;;;;;;6.68;4.47;;;10.40;80.20;;;;;;5003653;28;20042;-39
2022/04/24 01:04:57;;;;;;;7.28;4.20;;;10.30;80.30;;;;;;5005336;28;20466;-38
2022/04/24 01:07:23;;;;;;;6.15;4.35;;;10.30;81.80;;;;;;4990007;28;20181;-39
2022/04/24 01:09:48;;;;;;;9.77;4.55;;;10.30;81.00;;;;;;5006952;28;20511;-41
2022/04/24 01:12:14;;;;;;;7.10;4.38;;;10.20;82.50;;;;;;5007828;28;20085;-39
2022/04/24 01:14:40;;;;;;;6.93;4.18;;;10.20;82.60;;;;;;5004805;28;20517;-39
2022/04/24 01:17:06;;;;;;;5.50;4.00;;;10.10;82.20;;;;;;5002307;28;20046;-38
2022/04/24 01:19:32;;;;;;;7.95;4.68;;;10.10;82.80;;;;;;5000587;28;20061;-42
2022/04/24 01:21:58;;;;;;;7.28;4.10;;;10.10;82.90;;;;;;5008223;28;20037;-40
2022/04/24 01:24:26;;;;;;;7.22;4.22;;;10.10;83.80;;;;;;5003900;28;20037;-39
2022/04/24 01:26:53;;;;;;;6.47;3.95;;;10.00;83.30;;;;;;5007411;28;20187;-40
2022/04/24 01:29:19;;;;;;;7.32;3.97;;;10.00;83.30;;;;;;4987506;28;20065;-39
2022/04/24 01:31:45;;;;;;;6.05;3.95;;;10.00;82.80;;;;;;4999317;28;20115;-40
2022/04/24 01:34:12;;;;;;;6.88;4.10;;;10.00;83.70;;;;;;4982528;28;20050;-39
2022/04/24 01:36:38;;;;;;;5.70;4.07;;;10.00;83.90;;;;;;5001126;28;20038;-41
2022/04/24 01:39:07;;;;;;;9.50;3.60;;;10.00;83.20;;;;;;5003621;28;20042;-39
2022/04/24 01:41:33;;;;;;;6.55;3.70;;;9.90;83.30;;;;;;5004616;28;20478;-39
2022/04/24 01:43:59;;;;;;;7.57;3.97;;;10.00;83.30;;;;;;4998879;28;20057;-39
2022/04/24 01:46:25;;;;;;;7.53;4.45;;;9.90;84.30;;;;;;5007178;28;20494;-38
2022/04/24 01:48:50;;;;;;;6.40;4.10;;;9.90;84.80;;;;;;5004002;28;20475;-41
2022/04/24 01:51:16;;;;;;;7.05;3.80;;;9.80;85.30;;;;;;5001253;28;20037;-38
2022/04/24 01:53:43;;;;;;;5.70;3.80;;;9.80;85.60;;;;;;5008704;28;20080;-38
2022/04/24 01:56:10;;;;;;;7.72;4.53;;;9.80;86.20;;;;;;5007113;28;20161;-39
2022/04/24 01:58:36;;;;;;;5.40;3.80;;;9.70;85.40;;;;;;5000054;28;20122;-40
2022/04/24 02:01:04;;;;;;;6.10;4.25;;;9.70;86.00;;;;;;4998144;28;20042;-38
2022/04/24 02:03:30;;;;;;;9.68;3.97;;;9.70;86.50;;;;;;5007558;28;20042;-41
2022/04/24 02:05:56;;;;;;;7.10;4.00;;;9.60;86.90;;;;;;5004897;28;20491;-38
2022/04/24 02:08:22;;;;;;;7.18;4.05;;;9.60;87.00;;;;;;5003225;28;20129;-39
2022/04/24 02:10:49;;;;;;;6.22;4.30;;;9.60;87.20;;;;;;4998475;28;20068;-40
2022/04/24 02:13:15;;;;;;;5.72;3.65;;;9.50;87.40;;;;;;5003575;28;20491;-38
2022/04/24 02:15:41;;;;;;;7.88;4.30;;;9.50;88.70;;;;;;5003033;28;20045;-38
2022/04/24 02:18:07;;;;;;;5.55;4.13;;;9.50;88.70;;;;;;5006979;28;20046;-37
2022/04/24 02:20:33;;;;;;;6.75;4.25;;;9.50;88.60;;;;;;5000099;28;20046;-38
2022/04/24 02:22:59;;;;;;;6.43;4.28;;;9.40;89.00;;;;;;5004258;28;20566;-38
2022/04/24 02:25:25;;;;;;;6.63;3.97;;;9.40;88.80;;;;;;4984542;28;20060;-39
2022/04/24 02:27:56;;;;;;;6.68;3.65;;;9.40;88.80;;;;;;5000807;28;20045;-39
2022/04/24 02:30:27;;;;;;;6.53;4.10;;;9.30;89.90;;;;;;5005014;28;20172;-39
2022/04/24 02:32:57;;;;;;;6.32;3.97;;;9.30;90.10;;;;;;5006429;28;20386;-38
2022/04/24 02:35:23;;;;;;;6.15;4.03;;;9.20;90.40;;;;;;4999792;28;20491;-38
2022/04/24 02:37:48;;;;;;;5.70;3.70;;;9.20;90.30;;;;;;5000805;28;20042;-40
2022/04/24 02:40:17;;;;;;;11.93;3.90;;;9.20;90.20;;;;;;5006143;28;20128;-37
2022/04/24 02:42:43;;;;;;;7.55;4.30;;;9.20;90.10;;;;;;5008726;28;20064;-37
2022/04/24 02:45:09;;;;;;;5.70;3.90;;;9.20;90.60;;;;;;5010030;28;20482;-39
2022/04/24 02:47:38;;;;;;;6.60;4.00;;;9.20;90.40;;;;;;5002830;28;20052;-39
2022/04/24 02:50:04;;;;;;;5.95;3.78;;;9.10;90.90;;;;;;4988171;28;20207;-39
2022/04/24 02:52:30;;;;;;;8.88;4.22;;;9.10;91.20;;;;;;5005647;28;20568;-39
2022/04/24 02:54:56;;;;;;;5.63;3.92;;;9.00;91.10;;;;;;4987190;28;20084;-37
2022/04/24 02:57:21;;;;;;;7.90;3.88;;;9.00;91.40;;;;;;5004564;28;20041;-39
2022/04/24 02:59:50;;;;;;;6.93;3.85;;;8.90;91.70;;;;;;4982342;28;20174;-38
2022/04/24 03:02:16;;;;;;;6.07;3.97;;;8.90;91.60;;;;;;5006978;28;20080;-37
2022/04/24 03:04:45;;;;;;;6.95;4.03;;;8.90;91.30;;;;;;5010444;28;20042;-38
2022/04/24 03:07:11;;;;;;;8.68;3.83;;;8.80;91.70;;;;;;4999496;28;20030;-39
2022/04/24 03:09:36;;;;;;;8.15;3.53;;;8.80;91.90;;;;;;5002088;28;20045;-37
2022/04/24 03:12:02;;;;;;;7.00;3.90;;;8.80;91.90;;;;;;5008436;28;20038;-38
2022/04/24 03:14:28;;;;;;;8.80;4.55;;;8.70;92.30;;;;;;5006395;28;20062;-38
2022/04/24 03:16:53;;;;;;;6.00;3.80;;;8.70;92.00;;;;;;5007288;28;20490;-41
2022/04/24 03:19:19;;;;;;;7.07;3.80;;;8.70;92.40;;;;;;5005307;28;20483;-39
2022/04/24 03:21:45;;;;;;;7.03;4.22;;;8.70;92.20;;;;;;5008259;28;20498;-39
2022/04/24 03:24:11;;;;;;;5.38;4.00;;;8.70;92.10;;;;;;5010578;28;20442;-39
2022/04/24 03:26:36;;;;;;;6.38;3.22;;;8.60;92.50;;;;;;5008716;28;20049;-43
2022/04/24 03:29:02;;;;;;;6.07;3.88;;;8.60;92.30;;;;;;5007306;28;20034;-39
2022/04/24 03:31:28;;;;;;;9.60;3.70;;;8.60;92.50;;;;;;5008486;28;20671;-41
2022/04/24 03:33:54;;;;;;;6.53;4.30;;;8.60;92.40;;;;;;4990481;28;20121;-40
2022/04/24 03:36:20;;;;;;;6.60;4.30;;;8.50;92.30;;;;;;5009585;28;20034;-40
2022/04/24 03:38:46;;;;;;;7.15;3.90;;;8.50;92.90;;;;;;5006089;28;20031;-39
2022/04/24 03:41:12;;;;;;;6.28;3.83;;;8.40;93.00;;;;;;5005726;28;20029;-39
2022/04/24 03:43:37;;;;;;;7.90;4.25;;;8.30;93.10;;;;;;4999331;28;20046;-39
2022/04/24 03:46:05;;;;;;;6.78;3.85;;;8.30;93.30;;;;;;4998149;28;20757;-38
2022/04/24 03:48:31;;;;;;;6.88;4.25;;;8.30;93.40;;;;;;5001330;28;20049;-41
2022/04/24 03:50:57;;;;;;;6.78;3.88;;;8.20;93.90;;;;;;5005076;28;20395;-38
2022/04/24 03:53:22;;;;;;;5.00;3.80;;;8.10;93.60;;;;;;4986772;28;20459;-39
2022/04/24 03:55:48;;;;;;;6.53;3.55;;;8.10;94.10;;;;;;4987554;28;20038;-40
2022/04/24 03:58:14;;;;;;;7.13;4.60;;;8.10;94.50;;;;;;4998718;28;20426;-40
2022/04/24 04:00:39;;;;;;;7.85;4.03;;;8.00;94.30;;;;;;5004396;28;20058;-40
2022/04/24 04:03:05;;;;;;;8.23;4.10;;;8.00;94.70;;;;;;5007336;28;20092;-38
2022/04/24 04:05:31;;;;;;;6.05;3.97;;;7.90;95.00;;;;;;5008590;28;20037;-39
2022/04/24 04:07:57;;;;;;;6.93;3.97;;;7.90;94.70;;;;;;5001618;28;20606;-37
2022/04/24 04:10:22;;;;;;;8.18;3.70;;;7.90;94.30;;;;;;5006116;28;20052;-38
2022/04/24 04:12:51;;;;;;;5.88;3.88;;;7.90;94.60;;;;;;5005561;28;20615;-38
2022/04/24 04:15:17;;;;;;;6.28;3.88;;;7.80;95.10;;;;;;5006485;28;20070;-37
2022/04/24 04:17:44;;;;;;;6.93;3.92;;;7.80;94.80;;;;;;5000487;28;20042;-38
2022/04/24 04:20:11;;;;;;;6.30;3.65;;;7.80;95.00;;;;;;5003191;28;20069;-39
2022/04/24 04:22:54;;;;;;;7.18;4.07;;;7.80;95.30;;;;;;5004084;28;20038;-38
2022/04/24 04:25:21;;;;;;;5.82;4.28;;;7.80;95.80;;;;;;5005424;28;20482;-41
2022/04/24 04:27:48;;;;;;;7.03;4.15;;;7.70;95.40;;;;;;4995307;28;20458;-38
2022/04/24 04:30:14;;;;;;;7.18;4.13;;;7.70;95.30;;;;;;4996146;28;20242;-39
2022/04/24 04:32:39;;;;;;;7.07;4.00;;;7.70;95.60;;;;;;5002664;28;20049;-39
2022/04/24 04:35:07;;;;;;;5.70;3.92;;;7.70;95.10;;;;;;5009107;28;20041;-39
2022/04/24 04:37:33;;;;;;;7.00;3.60;;;7.70;95.60;;;;;;5002055;28;20144;-38
2022/04/24 04:40:00;;;;;;;7.18;4.30;;;7.70;95.60;;;;;;5003409;28;20112;-40
2022/04/24 04:42:25;;;;;;;5.70;3.92;;;7.70;95.20;;;;;;5006087;28;20498;-39
2022/04/24 04:44:51;;;;;;;6.38;4.07;;;7.70;95.10;;;;;;5004160;28;20034;-38
2022/04/24 04:47:17;;;;;;;7.38;4.45;;;7.70;95.20;;;;;;4999496;28;20049;-40
2022/04/24 04:49:42;;;;;;;6.63;3.80;;;7.70;94.90;;;;;;5001020;28;20093;-39
2022/04/24 04:52:08;;;;;;;5.55;3.97;;;7.70;94.90;;;;;;4997334;28;20411;-41
2022/04/24 04:54:34;;;;;;;7.38;4.20;;;7.70;94.90;;;;;;5002048;28;20125;-40
2022/04/24 04:57:00;;;;;;;5.78;3.45;;;7.70;95.00;;;;;;5004529;28;20177;-41
2022/04/24 04:59:25;;;;;;;6.28;4.03;;;7.70;94.60;;;;;;5002717;28;20144;-39
2022/04/24 05:01:51;;;;;;;6.65;3.80;;;7.70;94.80;;;;;;5002120;28;20110;-39
2022/04/24 05:04:17;;;;;;;6.30;4.13;;;7.70;94.60;;;;;;5008170;28;20228;-39
2022/04/24 05:06:42;;;;;;;5.93;4.05;;;7.80;94.50;;;;;;4994769;28;20069;-41
2022/04/24 05:09:08;;;;;;;6.53;4.07;;;7.80;95.10;;;;;;5007313;28;20088;-40
2022/04/24 05:11:34;;;;;;;6.13;3.58;;;7.80;94.60;;;;;;5007844;28;20049;-39
2022/04/24 05:13:59;;;;;;;5.68;3.80;;;7.80;94.30;;;;;;5005718;28;20064;-41
2022/04/24 05:16:25;;;;;;;5.10;3.75;;;7.80;94.40;;;;;;5005403;28;20045;-39
2022/04/24 05:18:51;;;;;;;5.43;3.85;;;7.80;94.20;;;;;;5002418;28;20506;-42
2022/04/24 05:21:17;;;;;;;5.80;3.83;;;7.90;93.90;;;;;;5000602;28;20030;-39
2022/04/24 05:23:45;;;;;;;7.93;4.00;;;7.90;93.90;;;;;;5004476;28;20446;-42
2022/04/24 05:26:12;;;;;;;6.57;3.92;;;7.90;94.20;;;;;;5002495;28;20124;-40
2022/04/24 05:28:38;;;;;;;6.72;3.80;;;8.00;93.80;;;;;;4996227;28;20244;-39
2022/04/24 05:31:05;;;;;;;6.93;3.92;;;8.00;93.90;;;;;;5006756;28;20046;-39
2022/04/24 05:33:31;;;;;;;8.57;4.20;;;8.00;93.50;;;;;;4981832;28;20458;-39
2022/04/24 05:35:57;;;;;;;5.78;3.72;;;8.10;93.60;;;;;;5002605;28;20030;-39
2022/04/24 05:38:23;;;;;;;7.50;4.35;;;8.10;93.40;;;;;;5003705;28;20503;-40
2022/04/24 05:40:49;;;;;;;9.65;4.15;;;8.20;93.20;;;;;;5000871;28;20033;-46
2022/04/24 05:43:14;;;;;;;6.72;4.10;;;8.20;93.40;;;;;;4999753;28;20041;-43
2022/04/24 05:45:40;;;;;;;5.78;3.97;;;8.30;93.30;;;;;;4984373;28;20045;-42
2022/04/24 05:48:06;;;;;;;6.03;3.47;;;8.30;92.70;;;;;;5002901;28;20092;-39
2022/04/24 05:50:33;;;;;;;6.82;4.07;;;8.40;92.40;;;;;;5002200;28;20033;-39
2022/04/24 05:52:59;;;;;;;6.35;4.20;;;8.40;92.80;;;;;;5004288;28;20084;-38
2022/04/24 05:55:25;;;;;;;6.40;4.32;;;8.40;92.50;;;;;;5008067;28;20073;-38
2022/04/24 05:57:50;;;;;;;6.80;4.10;;;8.40;92.30;;;;;;5001024;28;20045;-40
2022/04/24 06:00:16;;;;;;;6.22;3.65;;;8.40;92.40;;;;;;5000814;28;20042;-38
2022/04/24 06:02:43;;;;;;;5.70;4.22;;;8.50;92.30;;;;;;4984029;28;20133;-38
2022/04/24 06:05:12;;;;;;;8.82;3.88;;;8.50;92.20;;;;;;5004535;28;20034;-40
2022/04/24 06:07:39;;;;;;;5.95;4.10;;;8.60;92.00;;;;;;4987858;28;20038;-40
2022/04/24 06:10:05;;;;;;;6.40;3.85;;;8.70;91.90;;;;;;4990177;28;20045;-42
2022/04/24 06:12:32;;;;;;;6.47;3.58;;;8.70;91.50;;;;;;5005325;28;20084;-41
2022/04/24 06:15:05;;;;;;;5.60;3.28;;;8.80;91.40;;;;;;4998970;28;20050;-38
2022/04/24 06:17:30;;;;;;;5.78;3.45;;;8.90;91.30;;;;;;5003422;28;20094;-40
2022/04/24 06:19:56;;;;;;;6.15;3.97;;;8.90;91.00;;;;;;5008341;28;20034;-39
2022/04/24 06:22:21;;;;;;;5.28;3.53;;;9.00;90.60;;;;;;5005815;28;20041;-37
2022/04/24 06:24:50;;;;;;;5.40;3.60;;;9.00;90.20;;;;;;5009784;28;20030;-39
2022/04/24 06:27:16;;;;;;;6.40;3.42;;;9.00;90.10;;;;;;4985311;28;20096;-41
2022/04/24 06:29:42;;;;;;;7.22;4.20;;;9.10;90.10;;;;;;5003254;28;20379;-39
2022/04/24 06:32:08;;;;;;;5.05;3.58;;;9.20;89.50;;;;;;4985479;28;20034;-40
2022/04/24 06:34:34;;;;;;;5.85;3.60;;;9.30;88.90;;;;;;5003425;28;20490;-40
2022/04/24 06:37:00;;;;;;;7.13;3.70;;;9.40;88.10;;;;;;5012451;28;20048;-38
2022/04/24 06:39:25;;;;;;;8.40;3.78;;;9.50;88.10;;;;;;5009363;28;20045;-41
2022/04/24 06:41:51;;;;;;;5.35;3.55;;;9.60;88.30;;;;;;5006334;28;20050;-41
2022/04/24 06:44:17;;;;;;;6.03;3.70;;;9.70;86.80;;;;;;4987483;28;20056;-39
2022/04/24 06:46:46;;;;;;;5.55;3.70;;;9.80;86.20;;;;;;5005003;28;20049;-39
2022/04/24 06:49:12;;;;;;;6.65;3.88;;;9.80;85.10;;;;;;5009456;28;20077;-39
2022/04/24 06:51:38;;;;;;;5.00;3.35;;;9.90;84.50;;;;;;5006292;28;20561;-39
2022/04/24 06:54:03;;;;;;;8.98;4.13;;;9.90;84.10;;;;;;5007815;28;20045;-39
2022/04/24 06:56:29;;;;;;;6.53;3.55;;;10.00;83.40;;;;;;5004759;28;20049;-44
2022/04/24 06:58:55;;;;;;;5.28;3.30;;;10.10;83.10;;;;;;5002018;28;20044;-39
2022/04/24 07:01:22;;;;;;;5.82;3.55;;;10.10;82.90;;;;;;4998733;28;20049;-42
2022/04/24 07:03:48;;;;;;;6.60;3.40;;;10.20;82.70;;;;;;5006462;28;20037;-38
2022/04/24 07:06:14;;;;;;;4.70;3.33;;;10.20;81.90;;;;;;5005908;28;20046;-39
2022/04/24 07:08:40;;;;;;;6.43;3.20;;;10.30;81.50;;;;;;4999309;28;20088;-39
2022/04/24 07:11:06;;;;;;;6.20;3.67;;;10.30;81.20;;;;;;5002111;28;20037;-40
2022/04/24 07:13:31;;;;;;;6.05;3.90;;;10.30;81.20;;;;;;5001214;28;20062;-43
2022/04/24 07:15:57;;;;;;;5.07;3.50;;;10.50;80.70;;;;;;4979458;28;20050;-38
2022/04/24 07:18:23;;;;;;;6.00;3.63;;;10.50;80.10;;;;;;4980292;28;20030;-40
2022/04/24 07:20:49;;;;;;;8.60;3.47;;;10.60;79.60;;;;;;4998857;28;20084;-39
2022/04/24 07:23:15;;;;;;;7.43;3.83;;;10.60;79.30;;;;;;5003499;28;20095;-40
2022/04/24 07:25:46;;;;;;;9.77;3.80;;;10.70;79.20;;;;;;4997963;28;20049;-41
2022/04/24 07:28:13;;;;;;;5.40;3.83;;;10.70;79.10;;;;;;4994019;28;20046;-41
2022/04/24 07:30:40;;;;;;;6.28;4.22;;;10.80;79.20;;;;;;4996325;28;20076;-40
2022/04/24 07:33:05;;;;;;;8.23;3.63;;;10.90;78.20;;;;;;4991729;28;20049;-42
2022/04/24 07:35:35;;;;;;;6.43;3.55;;;10.90;78.00;;;;;;4984431;28;20042;-40
2022/04/24 07:38:01;;;;;;;8.48;3.55;;;11.00;77.90;;;;;;4994916;28;20057;-43
2022/04/24 07:40:29;;;;;;;7.50;3.45;;;11.10;77.80;;;;;;4998536;28;20516;-39
2022/04/24 07:42:56;;;;;;;6.78;3.55;;;11.20;77.10;;;;;;4973874;28;20050;-39
2022/04/24 07:45:31;;;;;;;6.95;3.90;;;11.20;76.30;;;;;;5002735;28;20081;-41
2022/04/24 07:47:58;;;;;;;8.52;3.53;;;11.30;75.60;;;;;;4999891;28;20052;-41
2022/04/24 07:50:29;;;;;;;7.53;3.95;;;11.30;75.30;;;;;;4983680;28;20054;-40
2022/04/24 07:52:56;;;;;;;6.55;3.50;;;11.40;74.90;;;;;;5003254;28;20053;-41
2022/04/24 07:55:23;;;;;;;11.48;4.15;;;11.50;74.10;;;;;;4985031;28;20045;-38
2022/04/24 07:57:54;;;;;;;7.50;3.58;;;11.60;74.00;;;;;;5004813;28;20050;-39
2022/04/24 08:00:22;;;;;;;6.40;3.72;;;11.70;73.70;;;;;;4999698;28;20486;-41
2022/04/24 08:02:51;;;;;;;6.40;3.60;;;11.80;72.60;;;;;;5004820;28;20041;-43
2022/04/24 08:05:29;;;;;;;6.30;3.47;;;11.90;71.70;;;;;;4998416;28;20033;-40
2022/04/24 08:07:58;;;;;;;6.28;3.50;;;12.00;70.70;;;;;;4991053;28;20161;-39
2022/04/24 08:10:25;;;;;;;6.97;4.22;;;12.00;70.40;;;;;;4987832;28;20042;-41
2022/04/24 08:12:51;;;;;;;5.57;3.72;;;12.10;70.10;;;;;;4985101;28;20065;-51
2022/04/24 08:15:18;;;;;;;4.78;3.20;;;12.10;69.50;;;;;;5003284;28;20498;-52
2022/04/24 08:17:44;;;;;;;6.47;3.13;;;12.20;69.60;;;;;;5002669;28;20046;-51
2022/04/24 08:20:12;;;;;;;6.32;4.00;;;12.40;69.70;;;;;;5010244;28;20180;-49
2022/04/24 08:22:43;;;;;;;5.57;3.22;;;12.50;68.80;;;;;;5012186;28;20462;-52
2022/04/24 08:25:11;;;;;;;7.38;3.67;;;12.60;68.70;;;;;;5009715;28;20034;-52
2022/04/24 08:27:37;;;;;;;4.93;3.30;;;12.70;67.60;;;;;;5008658;28;20038;-51
2022/04/24 08:30:05;;;;;;;7.00;4.35;;;12.80;66.80;;;;;;5012162;28;20038;-47
2022/04/24 08:32:30;;;;;;;8.70;3.78;;;12.80;66.00;;;;;;4994268;28;20038;-49
2022/04/24 08:34:56;;;;;;;5.72;3.38;;;12.80;65.70;;;;;;5010336;28;20387;-51
2022/04/24 08:37:26;;;;;;;6.85;3.03;;;12.90;65.60;;;;;;4987742;28;20037;-52
2022/04/24 08:39:52;;;;;;;5.88;2.67;;;13.00;65.10;;;;;;4980095;28;20182;-49
2022/04/24 08:42:21;;;;;;;4.68;3.25;;;13.10;64.60;;;;;;5009898;28;20084;-50
2022/04/24 08:44:51;;;;;;;5.18;3.08;;;13.10;63.70;;;;;;5008473;28;20111;-50
2022/04/24 08:47:19;;;;;;;5.90;3.00;;;13.20;63.30;;;;;;5009285;28;20036;-53
2022/04/24 08:49:45;;;;;;;6.82;3.20;;;13.30;62.90;;;;;;5010190;28;20041;-50
2022/04/24 08:52:13;;;;;;;4.78;2.88;;;13.40;62.80;;;;;;4999072;28;20038;-56
2022/04/24 08:54:41;;;;;;;11.50;2.92;;;13.40;62.60;;;;;;5011570;28;20525;-50
2022/04/24 08:57:08;;;;;;;5.20;3.10;;;13.60;61.80;;;;;;5011490;28;20049;-51
2022/04/24 08:59:35;;;;;;;6.05;2.63;;;13.70;61.50;;;;;;4994243;28;20164;-52
2022/04/24 09:02:01;;;;;;;5.35;3.00;;;13.70;60.40;;;;;;5006446;28;20549;-51
2022/04/24 09:04:28;;;;;;;5.82;2.85;;;13.80;60.70;;;;;;4990519;28;20117;-52
2022/04/24 09:06:58;;;;;;;4.00;2.25;;;13.90;60.60;;;;;;5001671;28;20366;-53
2022/04/24 09:09:24;;;;;;;5.75;2.75;;;14.00;60.30;;;;;;5011566;28;20041;-52
2022/04/24 09:11:50;;;;;;;7.65;2.45;;;14.10;60.10;;;;;;5001126;28;20050;-49
2022/04/24 09:14:19;;;;;;;5.40;2.40;;;14.10;59.00;;;;;;5008024;28;20359;-50
2022/04/24 09:16:49;;;;;;;4.28;2.30;;;14.20;59.20;;;;;;5010978;28;20045;-52
2022/04/24 09:19:27;;;;;;;4.72;2.35;;;14.20;58.70;;;;;;5006435;28;20041;-50
2022/04/24 09:22:00;;;;;;;4.15;2.00;;;14.40;58.40;;;;;;5007042;28;20125;-53
2022/04/24 09:24:48;;;;;;;4.32;2.47;;;14.50;58.00;;;;;;5010756;28;20077;-52
2022/04/24 09:27:35;;;;;;;3.53;1.98;;;14.60;57.10;;;;;;5003828;28;20399;-50
2022/04/24 09:30:04;;;;;;;4.57;1.98;;;14.70;55.80;;;;;;4998719;28;20074;-51
2022/04/24 09:32:32;;;;;;;3.65;1.88;;;14.70;56.20;;;;;;4997538;28;20072;-52
2022/04/24 09:34:58;;;;;;;6.43;2.05;;;14.90;56.00;;;;;;5008907;28;20135;-52
2022/04/24 09:37:24;;;;;;;5.00;2.22;;;15.00;55.20;;;;;;5007773;28;20498;-49
2022/04/24 09:39:52;;;;;;;3.03;1.85;;;15.10;54.80;;;;;;4995952;28;20034;-52
2022/04/24 09:42:19;;;;;;;4.03;2.20;;;15.20;55.00;;;;;;5009287;28;20080;-51
2022/04/24 09:44:50;;;;;;;4.97;1.70;;;15.30;55.30;;;;;;4988862;28;20421;-53
2022/04/24 09:47:23;;;;;;;2.88;1.60;;;15.50;53.30;;;;;;5010035;28;20605;-51
2022/04/24 09:49:50;;;;;;;3.53;1.85;;;15.60;52.90;;;;;;5006461;28;20096;-51
2022/04/24 09:52:18;;;;;;;4.93;1.77;;;15.80;53.00;;;;;;4993725;28;20093;-54
2022/04/24 09:54:46;;;;;;;2.55;1.23;;;15.90;52.40;;;;;;5002316;28;20042;-51
2022/04/24 09:57:13;;;;;;;3.63;1.27;;;16.00;51.60;;;;;;5003575;28;20034;-51
2022/04/24 09:59:41;;;;;;;2.03;1.15;;;16.20;50.90;;;;;;5008955;28;20508;-58
2022/04/24 10:02:08;;;;;;;4.78;1.20;;;16.20;50.10;;;;;;5000876;28;20495;-52
2022/04/24 10:04:38;;;;;;;4.82;1.30;;;16.40;49.60;;;;;;5011296;28;20073;-49
2022/04/24 10:07:13;;;;;;;3.13;1.25;;;16.50;48.90;;;;;;5014285;28;20140;-52
2022/04/24 10:09:40;;;;;;;3.65;1.30;;;16.60;48.60;;;;;;5015018;28;20219;-52
2022/04/24 10:12:14;;;;;;;5.20;1.80;;;16.70;48.30;;;;;;5014412;28;20405;-48
2022/04/24 10:14:53;;;;;;;2.25;1.20;;;16.70;47.50;;;;;;5011391;28;20165;-50
2022/04/24 10:17:27;;;;;;;3.08;1.50;;;16.80;47.70;;;;;;4998375;28;20039;-49
2022/04/24 10:20:31;;;;;;;3.85;1.60;;;16.90;47.60;;;;;;5011830;28;20048;-49
2022/04/24 10:22:59;;;;;;;4.78;1.80;;;16.90;46.60;;;;;;5007788;28;20040;-52
2022/04/24 10:25:38;;;;;;;2.53;1.33;;;16.90;47.20;;;;;;4999620;28;20613;-47
2022/04/24 10:28:18;;;;;;;1.73;1.05;;;17.00;46.60;;;;;;5009603;28;20054;-49
2022/04/24 10:30:59;;;;;;;5.53;1.80;;;17.10;46.50;;;;;;5010088;28;20042;-51
2022/04/24 10:33:30;;;;;;;2.47;1.52;;;17.20;46.10;;;;;;5007169;28;20034;-51
2022/04/24 10:36:05;;;;;;;5.90;1.30;;;17.30;46.60;;;;;;5001458;28;20483;-47
2022/04/24 10:38:47;;;;;;;3.72;1.38;;;17.40;46.80;;;;;;5009422;28;20092;-52
2022/04/24 10:41:23;;;;;;;3.45;1.60;;;17.70;46.30;;;;;;5011323;28;20045;-51
2022/04/24 10:43:51;;;;;;;3.20;1.83;;;17.70;45.60;;;;;;4984453;28;20096;-51
2022/04/24 10:46:32;;;;;;;3.67;1.33;;;17.80;45.20;;;;;;5000127;28;20546;-51
2022/04/24 10:49:14;;;;;;;2.75;1.60;;;17.80;44.50;;;;;;5012180;28;20048;-49
2022/04/24 10:51:41;;;;;;;2.70;1.52;;;17.80;44.00;;;;;;5007996;28;20340;-52
2022/04/24 10:54:13;;;;;;;4.63;1.70;;;17.90;44.50;;;;;;4966313;28;20038;-48
2022/04/24 10:56:41;;;;;;;5.07;1.80;;;18.00;44.10;;;;;;5001921;28;20497;-54
2022/04/24 10:59:12;;;;;;;2.97;1.67;;;18.00;43.90;;;;;;5012937;28;20029;-50
2022/04/24 11:01:43;;;;;;;3.22;1.73;;;18.10;43.70;;;;;;4993155;28;20081;-51
2022/04/24 11:04:10;;;;;;;4.57;1.63;;;18.10;43.10;;;;;;5003831;28;20566;-49
2022/04/24 11:06:36;;;;;;;2.45;1.60;;;18.20;43.50;;;;;;4996239;28;20120;-49
2022/04/24 11:09:09;;;;;;;3.03;1.40;;;18.40;44.00;;;;;;5011595;28;20125;-51
2022/04/24 11:11:46;;;;;;;6.43;1.90;;;18.30;43.20;;;;;;5008953;28;20585;-52
2022/04/24 11:14:12;;;;;;;3.50;1.42;;;18.20;42.60;;;;;;4999891;28;20080;-48
2022/04/24 11:16:38;;;;;;;3.30;1.77;;;18.10;43.20;;;;;;5011896;28;20115;-50
2022/04/24 11:19:03;;;;;;;3.22;1.95;;;18.10;42.10;;;;;;5009620;28;20491;-49
2022/04/24 11:21:39;;;;;;;5.03;1.60;;;18.10;41.50;;;;;;5010599;28;20066;-51
2022/04/24 11:24:06;;;;;;;2.75;1.40;;;18.10;41.70;;;;;;5004187;28;20112;-49
2022/04/24 11:26:32;;;;;;;5.65;1.27;;;18.10;41.90;;;;;;5007534;28;20038;-49
2022/04/24 11:29:08;;;;;;;4.20;1.30;;;18.00;42.30;;;;;;4986274;28;20399;-50
2022/04/24 11:31:34;;;;;;;7.95;1.27;;;17.90;43.10;;;;;;4969178;28;20048;-52
2022/04/24 11:34:01;;;;;;;2.30;0.98;;;18.10;43.00;;;;;;4998113;28;20038;-46
2022/04/24 11:36:32;;;;;;;2.17;1.23;;;18.20;42.90;;;;;;4994525;28;20384;-52
2022/04/24 11:39:00;;;;;;;2.80;1.30;;;18.10;42.50;;;;;;5013132;28;20030;-49
2022/04/24 11:41:31;;;;;;;2.13;1.05;;;18.10;41.70;;;;;;5011536;28;20045;-50
2022/04/24 11:44:01;;;;;;;2.47;1.02;;;18.20;41.40;;;;;;5000287;28;20041;-52
2022/04/24 11:52:03;;;;;;;3.65;1.02;;;18.40;40.50;;;;;;5004132;28;20057;-52
2022/04/24 11:54:28;;;;;;;1.70;1.00;;;18.50;40.00;;;;;;5012682;28;20137;-51
2022/04/24 11:56:54;;;;;;;2.72;1.08;;;18.60;40.30;;;;;;5011656;28;20034;-51
2022/04/24 11:59:22;;;;;;;3.05;1.00;;;18.50;40.60;;;;;;5009948;28;20030;-51
2022/04/24 12:01:59;;;;;;;2.70;1.17;;;18.40;40.70;;;;;;5012411;28;20100;-53
2022/04/24 12:04:33;;;;;;;3.67;1.10;;;18.40;40.10;;;;;;5003602;28;20046;-52
2022/04/24 12:07:07;;;;;;;3.22;1.00;;;18.40;40.20;;;;;;5009758;28;20045;-51
2022/04/24 12:09:34;;;;;;;3.55;0.88;;;18.40;40.50;;;;;;4988407;28;20038;-52
2022/04/24 12:12:06;;;;;;;3.40;0.90;;;18.40;40.10;;;;;;5001172;28;20535;-53
2022/04/24 12:14:33;;;;;;;2.13;1.10;;;18.30;40.30;;;;;;5011376;28;20061;-52
2022/04/24 12:17:08;;;;;;;1.13;0.73;;;18.30;40.70;;;;;;4994038;28;20192;-51
2022/04/24 12:19:35;;;;;;;3.25;0.80;;;18.50;40.80;;;;;;5008323;28;20076;-50
2022/04/24 12:22:07;;;;;;;2.20;0.80;;;18.80;40.50;;;;;;5009221;28;20034;-51
2022/04/24 12:24:41;;;;;;;2.08;1.00;;;19.10;39.40;;;;;;4999416;28;20171;-52
2022/04/24 12:27:12;;;;;;;1.42;0.98;;;19.40;39.00;;;;;;5001073;28;20109;-53
2022/04/24 12:29:48;;;;;;;5.30;1.02;;;19.50;38.90;;;;;;4992992;28;20068;-51
2022/04/24 12:32:15;;;;;;;2.08;1.13;;;19.80;38.00;;;;;;4994113;28;20041;-53
2022/04/24 12:34:43;;;;;;;1.65;1.00;;;19.80;37.80;;;;;;5012233;28;20068;-52
2022/04/24 12:37:09;;;;;;;2.33;1.00;;;20.00;38.10;;;;;;5012155;28;20053;-52
2022/04/24 12:39:35;;;;;;;5.50;1.10;;;20.00;38.10;;;;;;5010958;28;20174;-52
2022/04/24 12:42:30;;;;;;;5.13;1.00;;;19.80;38.20;;;;;;5006057;28;20041;-53
2022/04/24 12:44:56;;;;;;;18.98;1.73;;;19.30;37.50;;;;;;4985273;28;20049;-51
2022/04/24 12:47:22;;;;;;;3.33;1.08;;;18.80;39.00;;;;;;5002568;28;20037;-49
2022/04/24 12:49:48;;;;;;;4.50;1.30;;;18.50;39.70;;;;;;4991894;28;20037;-51
2022/04/24 12:52:14;;;;;;;2.67;1.40;;;18.10;40.10;;;;;;5002811;28;20046;-40
2022/04/24 12:54:40;;;;;;;5.65;1.10;;;18.20;40.80;;;;;;4999200;28;20057;-41
2022/04/24 12:57:09;;;;;;;4.05;1.20;;;18.60;41.30;;;;;;5000107;28;20399;-40
2022/04/24 12:59:35;;;;;;;1.98;0.82;;;19.00;40.60;;;;;;5011694;28;20125;-41